Time;durP1;ratioP1;P1;durP2;ratioP2;P2;SDS_P1;SDS_P2;PMS_P1;PMS_P2;Temp;Humidity;BMP_temperature;BMP_pressure;BME280_temperature;BME280_humidity;BME280_pressure;Samples;Min_cycle;Max_cycle;Signal;HPM_P1;HPM_P2
2022/12/28 00:02:04;;;;;;;3.73;3.43;;;;;;;;;;5039968;28;20985;-65
2022/12/28 00:04:31;;;;;;;8.13;3.10;;;;;;;;;;5035347;28;20220;-66
2022/12/28 00:06:58;;;;;;;3.53;3.23;;;;;;;;;;5032948;28;20635;-66
2022/12/28 00:09:25;;;;;;;4.97;3.60;;;;;;;;;;5034626;28;20262;-67
2022/12/28 00:11:52;;;;;;;5.40;2.70;;;;;;;;;;5031466;28;20321;-66
2022/12/28 00:14:19;;;;;;;5.73;3.47;;;;;;;;;;5036176;28;20208;-66
2022/12/28 00:16:46;;;;;;;5.80;3.27;;;;;;;;;;5031388;28;20290;-67
2022/12/28 00:19:16;;;;;;;4.57;3.33;;;;;;;;;;5039939;28;20253;-66
2022/12/28 00:21:43;;;;;;;3.13;2.93;;;;;;;;;;5032943;28;20282;-66
2022/12/28 00:24:15;;;;;;;5.40;3.03;;;;;;;;;;5035491;28;20204;-66
2022/12/28 00:26:42;;;;;;;5.83;3.23;;;;;;;;;;5041617;28;20259;-66
2022/12/28 00:29:10;;;;;;;5.17;3.03;;;;;;;;;;5045495;28;20671;-66
2022/12/28 00:31:37;;;;;;;5.30;3.93;;;;;;;;;;5030792;28;20219;-66
2022/12/28 00:34:05;;;;;;;9.43;3.47;;;;;;;;;;5030857;28;20209;-66
2022/12/28 00:36:33;;;;;;;4.40;3.20;;;;;;;;;;5032212;28;20212;-66
2022/12/28 00:39:00;;;;;;;5.30;3.57;;;;;;;;;;5030302;28;20636;-66
2022/12/28 00:41:27;;;;;;;3.47;3.17;;;;;;;;;;5035694;28;20207;-67
2022/12/28 00:43:54;;;;;;;3.33;2.97;;;;;;;;;;5043903;28;20254;-66
2022/12/28 00:46:21;;;;;;;5.63;2.83;;;;;;;;;;5042968;28;20235;-66
2022/12/28 00:48:48;;;;;;;4.97;2.70;;;;;;;;;;5044303;28;20216;-67
2022/12/28 00:51:16;;;;;;;2.90;2.60;;;;;;;;;;5042537;28;20207;-66
2022/12/28 00:53:44;;;;;;;6.70;2.60;;;;;;;;;;5044138;28;20253;-67
2022/12/28 00:56:13;;;;;;;3.20;2.90;;;;;;;;;;5040147;28;20317;-66
2022/12/28 00:58:40;;;;;;;8.30;2.33;;;;;;;;;;5042076;28;20658;-66
2022/12/28 01:01:11;;;;;;;2.90;2.70;;;;;;;;;;5042371;28;20273;-66
2022/12/28 01:03:38;;;;;;;2.43;2.33;;;;;;;;;;5037255;28;20212;-66
2022/12/28 01:06:06;;;;;;;5.67;2.77;;;;;;;;;;5036133;28;20223;-66
2022/12/28 01:08:33;;;;;;;3.67;2.53;;;;;;;;;;5047607;28;20207;-67
2022/12/28 01:11:01;;;;;;;5.70;2.87;;;;;;;;;;5047124;28;20239;-66
2022/12/28 01:13:28;;;;;;;2.93;2.57;;;;;;;;;;5043270;28;20625;-66
2022/12/28 01:15:55;;;;;;;4.23;2.27;;;;;;;;;;5038704;28;20215;-66
2022/12/28 01:18:22;;;;;;;7.33;3.13;;;;;;;;;;5041860;28;20575;-67
2022/12/28 01:20:49;;;;;;;2.53;2.30;;;;;;;;;;5031345;28;20205;-66
2022/12/28 01:23:16;;;;;;;3.60;2.60;;;;;;;;;;5033779;28;20306;-66
2022/12/28 01:25:43;;;;;;;4.17;3.00;;;;;;;;;;5037195;28;20879;-66
2022/12/28 01:28:11;;;;;;;5.77;2.87;;;;;;;;;;5043173;28;20262;-66
2022/12/28 01:30:38;;;;;;;9.10;2.43;;;;;;;;;;5043029;28;20216;-66
2022/12/28 01:33:05;;;;;;;2.93;2.63;;;;;;;;;;5041656;28;20208;-66
2022/12/28 01:35:32;;;;;;;4.73;3.07;;;;;;;;;;5035408;28;20262;-67
2022/12/28 01:37:59;;;;;;;4.67;2.60;;;;;;;;;;5038826;28;20208;-66
2022/12/28 01:40:26;;;;;;;4.37;2.47;;;;;;;;;;5032420;28;20212;-67
2022/12/28 01:42:53;;;;;;;4.43;2.60;;;;;;;;;;5031342;28;20216;-67
2022/12/28 01:45:22;;;;;;;6.73;2.73;;;;;;;;;;5030813;28;20642;-66
2022/12/28 01:47:51;;;;;;;4.57;2.43;;;;;;;;;;5047839;28;20204;-66
2022/12/28 01:50:19;;;;;;;3.47;2.17;;;;;;;;;;5033727;28;20220;-66
2022/12/28 01:52:49;;;;;;;2.57;2.47;;;;;;;;;;5042321;28;20210;-67
2022/12/28 01:55:18;;;;;;;2.90;2.50;;;;;;;;;;5031716;28;20232;-66
2022/12/28 01:57:47;;;;;;;3.17;2.73;;;;;;;;;;5035661;28;20204;-66
2022/12/28 02:00:16;;;;;;;4.63;3.10;;;;;;;;;;5031983;28;20212;-66
2022/12/28 02:02:47;;;;;;;2.67;2.47;;;;;;;;;;5030734;28;20667;-67
2022/12/28 02:05:14;;;;;;;8.93;2.80;;;;;;;;;;5041284;28;20228;-66
2022/12/28 02:07:44;;;;;;;4.17;2.80;;;;;;;;;;5036321;28;20560;-66
2022/12/28 02:10:11;;;;;;;3.43;3.10;;;;;;;;;;5043820;28;20200;-66
2022/12/28 02:12:39;;;;;;;2.50;2.30;;;;;;;;;;5037732;28;20234;-66
2022/12/28 02:15:06;;;;;;;5.27;2.63;;;;;;;;;;5036668;28;20345;-67
2022/12/28 02:17:34;;;;;;;7.57;2.90;;;;;;;;;;5029177;28;20270;-66
2022/12/28 02:20:02;;;;;;;4.77;2.90;;;;;;;;;;5039992;28;20294;-66
2022/12/28 02:22:57;;;;;;;2.97;2.67;;;;;;;;;;5048645;28;20207;-66
2022/12/28 02:25:35;;;;;;;5.00;2.87;;;;;;;;;;5031052;28;20714;-66
2022/12/28 02:28:08;;;;;;;6.13;2.97;;;;;;;;;;5028304;28;20268;-66
2022/12/28 02:30:39;;;;;;;4.00;3.27;;;;;;;;;;5042476;28;20277;-66
2022/12/28 02:33:09;;;;;;;6.87;2.87;;;;;;;;;;5031916;28;20253;-66
2022/12/28 02:35:39;;;;;;;6.07;3.07;;;;;;;;;;5029355;28;20216;-65
2022/12/28 02:38:08;;;;;;;5.97;3.47;;;;;;;;;;5042871;28;20203;-66
2022/12/28 02:40:36;;;;;;;3.73;3.10;;;;;;;;;;5043850;28;20293;-67
2022/12/28 02:43:03;;;;;;;3.60;3.00;;;;;;;;;;5036912;28;20616;-67
2022/12/28 02:51:09;;;;;;;3.80;2.83;;;;;;;;;;5031832;28;20693;-67
2022/12/28 02:53:45;;;;;;;7.30;3.07;;;;;;;;;;5029073;28;20266;-67
2022/12/28 02:56:19;;;;;;;5.73;3.17;;;;;;;;;;5032128;28;20262;-66
2022/12/28 02:59:04;;;;;;;6.30;3.37;;;;;;;;;;5041753;28;20579;-66
2022/12/28 03:01:38;;;;;;;3.63;3.27;;;;;;;;;;5027658;28;20211;-67
2022/12/28 03:04:09;;;;;;;5.03;3.50;;;;;;;;;;5028822;28;20615;-66
2022/12/28 03:09:29;;;;;;;3.50;3.03;;;;;;;;;;5036010;28;20209;-66
2022/12/28 03:11:59;;;;;;;3.77;3.23;;;;;;;;;;5028209;28;20242;-66
2022/12/28 03:14:29;;;;;;;3.87;3.30;;;;;;;;;;5037775;28;20207;-65
2022/12/28 03:31:06;;;;;;;3.80;3.50;;;;;;;;;;5033791;28;20290;-66
2022/12/28 03:33:33;;;;;;;10.90;3.10;;;;;;;;;;5028071;28;20209;-66
2022/12/28 03:36:04;;;;;;;6.93;2.63;;;;;;;;;;5043012;28;20826;-67
2022/12/28 03:38:37;;;;;;;2.40;2.27;;;;;;;;;;5033555;28;20207;-66
2022/12/28 03:41:07;;;;;;;3.07;2.77;;;;;;;;;;5038305;28;20211;-66
2022/12/28 03:43:39;;;;;;;3.93;2.90;;;;;;;;;;5036381;28;20754;-66
2022/12/28 03:46:09;;;;;;;5.10;2.83;;;;;;;;;;5036038;28;20277;-66
2022/12/28 03:48:36;;;;;;;2.33;2.13;;;;;;;;;;5043504;28;20205;-65
2022/12/28 03:51:05;;;;;;;6.33;2.80;;;;;;;;;;5045673;28;20638;-66
2022/12/28 03:53:37;;;;;;;2.50;2.30;;;;;;;;;;5030634;28;20208;-66
2022/12/28 03:56:08;;;;;;;2.27;2.17;;;;;;;;;;5028390;28;20633;-66
2022/12/28 03:58:35;;;;;;;5.07;2.70;;;;;;;;;;5042904;28;20796;-67
2022/12/28 04:01:02;;;;;;;3.87;2.53;;;;;;;;;;5039953;28;20215;-66
2022/12/28 04:03:29;;;;;;;3.77;2.67;;;;;;;;;;5032637;28;20216;-66
2022/12/28 04:05:57;;;;;;;5.33;2.53;;;;;;;;;;5031665;28;20239;-66
2022/12/28 04:08:28;;;;;;;8.97;2.83;;;;;;;;;;5030844;28;20212;-66
2022/12/28 04:10:55;;;;;;;4.20;2.57;;;;;;;;;;5032929;28;20696;-66
2022/12/28 04:13:22;;;;;;;3.47;2.60;;;;;;;;;;5034313;28;20215;-66
2022/12/28 04:15:56;;;;;;;3.03;2.70;;;;;;;;;;5037743;28;20311;-66
2022/12/28 04:18:23;;;;;;;2.90;2.57;;;;;;;;;;5033827;28;20254;-66
2022/12/28 04:20:50;;;;;;;3.53;2.73;;;;;;;;;;5038533;28;20200;-65
2022/12/28 04:23:17;;;;;;;2.47;2.27;;;;;;;;;;5033756;28;20216;-66
2022/12/28 04:25:56;;;;;;;3.03;2.57;;;;;;;;;;5031384;28;20224;-65
2022/12/28 04:28:23;;;;;;;3.17;2.40;;;;;;;;;;5031650;28;20212;-66
2022/12/28 04:30:50;;;;;;;4.00;3.00;;;;;;;;;;5038869;28;20208;-66
2022/12/28 04:33:17;;;;;;;4.13;2.90;;;;;;;;;;5040324;28;20210;-66
2022/12/28 04:35:44;;;;;;;3.23;2.93;;;;;;;;;;5048458;28;20208;-66
2022/12/28 04:38:11;;;;;;;5.63;2.60;;;;;;;;;;5036787;28;20211;-65
2022/12/28 04:40:38;;;;;;;4.03;2.60;;;;;;;;;;5033199;28;20336;-65
2022/12/28 04:43:06;;;;;;;3.60;2.47;;;;;;;;;;5040590;28;20263;-66
2022/12/28 04:45:33;;;;;;;3.23;2.77;;;;;;;;;;5047998;28;20240;-65
2022/12/28 04:48:00;;;;;;;5.80;3.13;;;;;;;;;;5047558;28;20216;-66
2022/12/28 04:50:28;;;;;;;4.20;3.07;;;;;;;;;;5039057;28;20203;-65
2022/12/28 04:52:55;;;;;;;5.80;2.77;;;;;;;;;;5035916;28;20204;-66
2022/12/28 04:55:22;;;;;;;3.90;2.60;;;;;;;;;;5039953;28;20231;-65
2022/12/28 04:57:49;;;;;;;6.70;2.63;;;;;;;;;;5041861;28;20626;-66
2022/12/28 05:00:18;;;;;;;2.50;2.30;;;;;;;;;;5042427;28;20216;-66
2022/12/28 05:02:45;;;;;;;4.07;2.37;;;;;;;;;;5029798;28;20705;-66
2022/12/28 05:05:12;;;;;;;2.47;2.27;;;;;;;;;;5039682;28;20557;-66
2022/12/28 05:07:39;;;;;;;3.33;2.60;;;;;;;;;;5031977;28;20224;-66
2022/12/28 05:10:06;;;;;;;6.53;2.70;;;;;;;;;;5032190;28;20204;-66
2022/12/28 05:12:33;;;;;;;2.43;1.93;;;;;;;;;;5032764;28;20212;-65
2022/12/28 05:15:00;;;;;;;3.10;2.30;;;;;;;;;;5033009;28;20207;-66
2022/12/28 05:17:28;;;;;;;4.13;2.87;;;;;;;;;;5043300;28;20207;-66
2022/12/28 05:19:55;;;;;;;3.53;2.57;;;;;;;;;;5040792;28;20671;-66
2022/12/28 05:22:22;;;;;;;6.57;2.67;;;;;;;;;;5036858;28;20213;-65
2022/12/28 05:24:49;;;;;;;3.90;2.80;;;;;;;;;;5043588;28;20211;-65
2022/12/28 05:27:16;;;;;;;2.70;2.50;;;;;;;;;;5043350;28;20232;-65
2022/12/28 05:29:43;;;;;;;2.23;2.03;;;;;;;;;;5040484;28;20217;-66
2022/12/28 05:32:10;;;;;;;3.63;2.50;;;;;;;;;;5031674;28;20219;-65
2022/12/28 05:34:39;;;;;;;2.80;1.83;;;;;;;;;;5031225;28;20868;-66
2022/12/28 05:37:06;;;;;;;2.50;2.20;;;;;;;;;;5030804;28;20207;-65
2022/12/28 05:39:33;;;;;;;3.87;2.50;;;;;;;;;;5029629;28;20211;-66
2022/12/28 05:42:03;;;;;;;4.30;2.13;;;;;;;;;;5044141;28;20262;-66
2022/12/28 05:44:30;;;;;;;2.10;1.90;;;;;;;;;;5042357;28;20215;-65
2022/12/28 05:46:57;;;;;;;2.10;1.93;;;;;;;;;;5045038;28;20220;-65
2022/12/28 05:49:24;;;;;;;2.40;1.87;;;;;;;;;;5032307;28;20498;-65
2022/12/28 05:51:52;;;;;;;3.80;2.33;;;;;;;;;;5049162;28;20257;-65
2022/12/28 05:54:22;;;;;;;2.23;1.90;;;;;;;;;;5030297;28;20216;-66
2022/12/28 05:56:51;;;;;;;0.97;0.97;;;;;;;;;;5038769;28;20224;-65
2022/12/28 05:59:18;;;;;;;1.87;1.73;;;;;;;;;;5031742;28;20236;-65
2022/12/28 06:01:45;;;;;;;5.50;2.10;;;;;;;;;;5035410;28;20203;-65
2022/12/28 06:04:15;;;;;;;2.83;1.63;;;;;;;;;;5036580;28;20270;-66
2022/12/28 06:06:42;;;;;;;2.87;1.90;;;;;;;;;;5033703;28;20586;-66
2022/12/28 06:09:10;;;;;;;1.40;1.40;;;;;;;;;;5043338;28;20207;-65
2022/12/28 06:11:37;;;;;;;4.83;2.07;;;;;;;;;;5029129;28;20251;-66
2022/12/28 06:14:04;;;;;;;7.53;2.10;;;;;;;;;;5031324;28;20730;-65
2022/12/28 06:16:32;;;;;;;2.40;1.70;;;;;;;;;;5031726;28;20199;-65
2022/12/28 06:18:59;;;;;;;1.80;1.70;;;;;;;;;;5038638;28;20199;-66
2022/12/28 06:21:27;;;;;;;4.20;2.10;;;;;;;;;;5034800;28;20714;-65
2022/12/28 06:23:56;;;;;;;2.37;2.17;;;;;;;;;;5042914;28;20212;-65
2022/12/28 06:26:25;;;;;;;3.20;1.37;;;;;;;;;;5035810;28;20698;-65
2022/12/28 06:28:52;;;;;;;1.43;1.33;;;;;;;;;;5038251;28;20211;-65
2022/12/28 06:31:20;;;;;;;2.00;1.80;;;;;;;;;;5036742;28;20216;-64
2022/12/28 06:33:47;;;;;;;1.77;1.67;;;;;;;;;;5045977;28;20446;-65
2022/12/28 06:36:16;;;;;;;1.87;1.47;;;;;;;;;;5030903;28;20215;-65
2022/12/28 06:38:43;;;;;;;1.80;1.70;;;;;;;;;;5042993;28;20780;-65
2022/12/28 06:41:11;;;;;;;1.70;1.60;;;;;;;;;;5037741;28;20207;-65
2022/12/28 06:43:40;;;;;;;1.93;1.77;;;;;;;;;;5040445;28;20211;-65
2022/12/28 06:46:07;;;;;;;3.23;1.90;;;;;;;;;;5040680;28;20273;-65
2022/12/28 06:48:35;;;;;;;2.03;1.53;;;;;;;;;;5034779;28;20203;-65
2022/12/28 06:51:03;;;;;;;2.10;2.00;;;;;;;;;;5027635;28;20205;-65
2022/12/28 06:53:31;;;;;;;1.80;1.70;;;;;;;;;;5034449;28;20597;-65
2022/12/28 06:55:59;;;;;;;3.03;1.73;;;;;;;;;;5041874;28;20227;-65
2022/12/28 06:58:27;;;;;;;1.83;1.63;;;;;;;;;;5041621;28;20200;-64
2022/12/28 07:00:55;;;;;;;3.50;1.20;;;;;;;;;;5036767;28;20607;-65
2022/12/28 07:03:22;;;;;;;4.20;1.90;;;;;;;;;;5036369;28;20301;-65
2022/12/28 07:05:50;;;;;;;1.87;1.73;;;;;;;;;;5029763;28;20208;-65
2022/12/28 07:08:17;;;;;;;2.57;2.00;;;;;;;;;;5043241;28;20230;-65
2022/12/28 07:10:44;;;;;;;1.80;1.70;;;;;;;;;;5034601;28;20285;-65
2022/12/28 07:13:11;;;;;;;1.40;1.30;;;;;;;;;;5033098;28;20729;-65
2022/12/28 07:15:38;;;;;;;2.27;1.83;;;;;;;;;;5041034;28;20273;-65
2022/12/28 07:18:06;;;;;;;3.17;1.77;;;;;;;;;;5039261;28;20195;-64
2022/12/28 07:20:33;;;;;;;1.40;1.37;;;;;;;;;;5040843;28;20209;-65
2022/12/28 07:23:00;;;;;;;1.83;1.73;;;;;;;;;;5031787;28;20204;-65
2022/12/28 07:25:27;;;;;;;1.70;1.60;;;;;;;;;;5042196;28;20207;-65
2022/12/28 07:27:54;;;;;;;1.60;1.50;;;;;;;;;;5036099;28;20235;-65
2022/12/28 07:30:21;;;;;;;1.30;1.20;;;;;;;;;;5035028;28;20231;-64
2022/12/28 07:32:48;;;;;;;2.70;1.93;;;;;;;;;;5039705;28;20211;-65
2022/12/28 07:35:17;;;;;;;1.67;1.57;;;;;;;;;;5029152;28;20208;-65
2022/12/28 07:37:45;;;;;;;4.40;1.93;;;;;;;;;;5037156;28;20193;-65
2022/12/28 07:40:12;;;;;;;2.97;1.33;;;;;;;;;;5029844;28;20213;-65
2022/12/28 07:42:39;;;;;;;1.37;1.37;;;;;;;;;;5029474;28;20208;-66
2022/12/28 07:45:09;;;;;;;1.40;1.37;;;;;;;;;;5039377;28;20213;-65
2022/12/28 07:47:36;;;;;;;1.30;1.23;;;;;;;;;;5035252;28;20227;-66
2022/12/28 07:50:04;;;;;;;1.70;1.60;;;;;;;;;;5036167;28;20203;-65
2022/12/28 07:52:32;;;;;;;0.43;0.43;;;;;;;;;;5049493;28;20207;-66
2022/12/28 07:54:59;;;;;;;1.60;1.60;;;;;;;;;;5045311;28;20212;-66
2022/12/28 07:57:26;;;;;;;9.53;1.83;;;;;;;;;;5034350;28;20207;-66
2022/12/28 07:59:53;;;;;;;1.20;1.20;;;;;;;;;;5048681;28;20212;-66
2022/12/28 08:02:20;;;;;;;1.90;1.67;;;;;;;;;;5039267;28;20684;-66
2022/12/28 08:04:47;;;;;;;1.60;1.20;;;;;;;;;;5042621;28;20261;-67
2022/12/28 08:07:14;;;;;;;6.03;1.50;;;;;;;;;;5033148;28;20228;-64
2022/12/28 08:09:42;;;;;;;3.20;1.73;;;;;;;;;;5045212;28;20440;-65
2022/12/28 08:12:09;;;;;;;1.10;1.10;;;;;;;;;;5037533;28;20269;-65
2022/12/28 08:14:37;;;;;;;1.13;1.10;;;;;;;;;;5038387;28;20917;-65
2022/12/28 08:17:04;;;;;;;1.70;1.60;;;;;;;;;;5045769;28;21030;-64
2022/12/28 08:19:31;;;;;;;1.50;1.40;;;;;;;;;;5038272;28;20219;-64
2022/12/28 08:21:58;;;;;;;3.70;1.37;;;;;;;;;;5049601;28;20207;-65
2022/12/28 08:24:25;;;;;;;1.50;1.33;;;;;;;;;;5033272;28;20321;-65
2022/12/28 08:26:53;;;;;;;1.67;1.57;;;;;;;;;;5042470;28;20317;-64
2022/12/28 08:29:21;;;;;;;1.07;1.07;;;;;;;;;;5039547;28;20686;-65
2022/12/28 08:31:48;;;;;;;1.20;1.13;;;;;;;;;;5033327;28;20266;-65
2022/12/28 08:34:16;;;;;;;3.13;1.63;;;;;;;;;;5042411;28;20210;-65
2022/12/28 08:36:43;;;;;;;2.00;1.00;;;;;;;;;;5031201;28;20270;-65
2022/12/28 08:39:10;;;;;;;1.70;1.17;;;;;;;;;;5030530;28;20212;-66
2022/12/28 08:41:37;;;;;;;1.30;1.30;;;;;;;;;;5030538;28;20718;-64
2022/12/28 08:44:06;;;;;;;1.47;1.37;;;;;;;;;;5035531;28;20663;-65
2022/12/28 08:46:34;;;;;;;1.20;1.20;;;;;;;;;;5038862;28;20575;-65
2022/12/28 08:49:02;;;;;;;1.30;1.00;;;;;;;;;;5035718;28;20754;-66
2022/12/28 08:51:31;;;;;;;2.03;1.47;;;;;;;;;;5030964;28;20303;-65
2022/12/28 08:53:58;;;;;;;1.80;1.70;;;;;;;;;;5037338;28;20261;-66
2022/12/28 08:56:26;;;;;;;2.63;1.13;;;;;;;;;;5029036;28;20319;-66
2022/12/28 08:58:53;;;;;;;1.10;1.10;;;;;;;;;;5035981;28;20212;-65
2022/12/28 09:01:22;;;;;;;2.07;1.40;;;;;;;;;;5033207;28;20212;-66
2022/12/28 09:03:50;;;;;;;2.57;1.30;;;;;;;;;;5035260;28;20203;-64
2022/12/28 09:06:18;;;;;;;1.43;1.33;;;;;;;;;;5034720;28;20216;-65
2022/12/28 09:08:45;;;;;;;1.83;1.30;;;;;;;;;;5033082;28;20235;-65
2022/12/28 09:11:13;;;;;;;1.20;1.07;;;;;;;;;;5035469;28;20346;-65
2022/12/28 09:13:40;;;;;;;1.30;1.30;;;;;;;;;;5046853;28;20686;-66
2022/12/28 09:16:08;;;;;;;1.03;1.03;;;;;;;;;;5046106;28;20208;-66
2022/12/28 09:18:37;;;;;;;0.90;0.90;;;;;;;;;;5042113;28;20212;-65
2022/12/28 09:21:07;;;;;;;2.87;1.37;;;;;;;;;;5029373;28;20253;-66
2022/12/28 09:23:34;;;;;;;4.13;1.33;;;;;;;;;;5029737;28;20215;-65
2022/12/28 09:26:05;;;;;;;1.37;1.20;;;;;;;;;;5033158;28;20230;-64
2022/12/28 09:28:32;;;;;;;1.60;1.50;;;;;;;;;;5038452;28;20228;-64
2022/12/28 09:31:02;;;;;;;1.50;0.90;;;;;;;;;;5032455;28;20204;-64
2022/12/28 09:36:15;;;;;;;0.73;0.73;;;;;;;;;;5033966;28;20207;-66
2022/12/28 09:38:42;;;;;;;1.43;1.07;;;;;;;;;;5030502;28;20219;-65
2022/12/28 09:41:13;;;;;;;1.13;0.90;;;;;;;;;;5031234;28;20718;-65
2022/12/28 09:43:41;;;;;;;1.00;1.00;;;;;;;;;;5042955;28;20227;-65
2022/12/28 09:46:09;;;;;;;1.00;1.00;;;;;;;;;;5033631;28;20299;-65
2022/12/28 09:48:36;;;;;;;1.00;1.00;;;;;;;;;;5031423;28;20228;-65
2022/12/28 09:51:04;;;;;;;1.77;1.67;;;;;;;;;;5029778;28;20213;-66
2022/12/28 09:53:33;;;;;;;1.13;1.10;;;;;;;;;;5034120;28;20209;-66
2022/12/28 09:56:03;;;;;;;2.80;1.00;;;;;;;;;;5030884;28;20220;-65
2022/12/28 09:58:31;;;;;;;1.43;1.20;;;;;;;;;;5042233;28;20678;-65
2022/12/28 10:00:58;;;;;;;0.70;0.67;;;;;;;;;;5036410;28;20243;-65
2022/12/28 10:03:27;;;;;;;1.30;1.10;;;;;;;;;;5030515;28;20991;-66
2022/12/28 10:05:54;;;;;;;1.43;1.33;;;;;;;;;;5037749;28;20204;-64
2022/12/28 10:08:44;;;;;;;1.13;0.80;;;;;;;;;;5032471;28;20224;-65
2022/12/28 10:11:15;;;;;;;3.30;1.50;;;;;;;;;;5021680;28;20728;-65
2022/12/28 10:13:42;;;;;;;1.03;1.03;;;;;;;;;;5029188;28;20258;-67
2022/12/28 10:16:14;;;;;;;0.87;0.87;;;;;;;;;;5033912;28;20204;-65
2022/12/28 10:18:41;;;;;;;4.50;1.57;;;;;;;;;;5042412;28;20220;-65
2022/12/28 10:21:09;;;;;;;5.87;2.20;;;;;;;;;;5039198;28;20857;-65
2022/12/28 10:23:36;;;;;;;4.67;1.60;;;;;;;;;;5037757;28;20258;-65
2022/12/28 10:26:05;;;;;;;2.00;1.50;;;;;;;;;;5034434;28;20342;-65
2022/12/28 10:28:35;;;;;;;0.73;0.73;;;;;;;;;;5036378;28;20285;-65
2022/12/28 10:31:04;;;;;;;1.70;1.53;;;;;;;;;;5036996;28;20594;-65
2022/12/28 10:33:31;;;;;;;4.17;1.87;;;;;;;;;;5035814;28;20196;-65
2022/12/28 10:35:59;;;;;;;2.23;1.80;;;;;;;;;;5038844;28;20201;-65
2022/12/28 10:38:28;;;;;;;1.47;1.03;;;;;;;;;;5035530;28;20659;-66
2022/12/28 10:40:57;;;;;;;1.20;1.20;;;;;;;;;;5038961;28;20583;-65
2022/12/28 10:43:28;;;;;;;1.20;1.20;;;;;;;;;;5034387;28;20695;-66
2022/12/28 10:45:57;;;;;;;1.50;1.40;;;;;;;;;;5034350;28;20671;-68
2022/12/28 10:48:26;;;;;;;1.57;1.50;;;;;;;;;;5035227;28;20292;-63
2022/12/28 10:50:54;;;;;;;0.97;0.80;;;;;;;;;;5037088;28;20208;-65
2022/12/28 10:53:26;;;;;;;1.40;1.30;;;;;;;;;;5035369;28;20216;-65
2022/12/28 10:56:09;;;;;;;2.00;1.90;;;;;;;;;;5037086;28;20234;-65
2022/12/28 10:58:36;;;;;;;7.17;2.87;;;;;;;;;;5037370;28;20204;-65
2022/12/28 11:01:07;;;;;;;2.50;2.30;;;;;;;;;;5037100;28;20200;-65
2022/12/28 11:03:35;;;;;;;5.67;1.77;;;;;;;;;;5035168;28;20298;-65
2022/12/28 11:06:13;;;;;;;4.47;2.43;;;;;;;;;;5034777;28;20238;-66
2022/12/28 11:08:41;;;;;;;3.60;2.20;;;;;;;;;;5037409;28;20228;-66
2022/12/28 11:11:17;;;;;;;1.40;1.30;;;;;;;;;;5034133;28;20646;-66
2022/12/28 11:13:45;;;;;;;2.80;1.53;;;;;;;;;;5037945;28;20215;-64
2022/12/28 11:16:15;;;;;;;1.60;1.50;;;;;;;;;;5035724;28;20656;-64
2022/12/28 11:18:42;;;;;;;1.33;1.23;;;;;;;;;;5033418;28;20212;-66
2022/12/28 11:21:11;;;;;;;1.37;1.37;;;;;;;;;;5032480;28;20212;-65
2022/12/28 11:23:39;;;;;;;1.37;1.10;;;;;;;;;;5035551;28;20548;-64
2022/12/28 11:26:09;;;;;;;1.10;1.10;;;;;;;;;;5040970;28;20227;-65
2022/12/28 11:28:36;;;;;;;1.93;1.00;;;;;;;;;;5039407;28;20235;-64
2022/12/28 11:31:05;;;;;;;4.00;1.70;;;;;;;;;;5039163;28;20208;-65
2022/12/28 11:33:36;;;;;;;0.93;0.93;;;;;;;;;;5040131;28;20216;-64
2022/12/28 11:36:03;;;;;;;3.60;1.20;;;;;;;;;;5039384;28;20212;-65
2022/12/28 11:38:40;;;;;;;0.80;0.80;;;;;;;;;;5040827;28;20790;-65
2022/12/28 11:41:07;;;;;;;1.50;1.10;;;;;;;;;;5040310;28;20215;-65
2022/12/28 11:44:03;;;;;;;1.77;1.10;;;;;;;;;;5040688;28;20204;-65
2022/12/28 11:46:40;;;;;;;1.20;1.10;;;;;;;;;;5039142;28;20709;-65
2022/12/28 11:49:40;;;;;;;0.80;0.80;;;;;;;;;;5037533;28;20228;-64
2022/12/28 11:52:26;;;;;;;1.43;1.10;;;;;;;;;;4999550;28;20244;-64
2022/12/28 11:54:55;;;;;;;2.27;1.00;;;;;;;;;;4995128;28;20264;-64
2022/12/28 11:57:35;;;;;;;0.77;0.77;;;;;;;;;;5020405;28;20266;-64
2022/12/28 12:03:11;;;;;;;0.60;0.60;;;;;;;;;;5034912;28;20630;-63
2022/12/28 12:05:51;;;;;;;3.10;1.23;;;;;;;;;;5043121;28;20273;-64
2022/12/28 12:08:37;;;;;;;0.73;0.73;;;;;;;;;;5035092;28;20261;-64
2022/12/28 12:11:30;;;;;;;1.83;0.73;;;;;;;;;;5046118;28;20228;-64
2022/12/28 12:14:05;;;;;;;3.60;0.80;;;;;;;;;;5030870;28;20758;-64
2022/12/28 12:16:49;;;;;;;3.37;0.80;;;;;;;;;;5047438;28;20646;-63
2022/12/28 12:19:20;;;;;;;1.90;1.10;;;;;;;;;;5041685;28;20593;-62
2022/12/28 12:21:55;;;;;;;0.70;0.70;;;;;;;;;;5033079;28;20270;-64
2022/12/28 12:24:25;;;;;;;1.03;0.67;;;;;;;;;;5035641;28;20208;-63
2022/12/28 12:26:57;;;;;;;3.73;0.73;;;;;;;;;;5032310;28;20205;-65
2022/12/28 12:29:28;;;;;;;0.60;0.60;;;;;;;;;;5043585;28;20835;-64
2022/12/28 12:31:57;;;;;;;0.83;0.83;;;;;;;;;;5034319;28;20366;-64
2022/12/28 12:34:26;;;;;;;1.03;0.60;;;;;;;;;;5037858;28;20602;-63
2022/12/28 12:37:08;;;;;;;0.40;0.40;;;;;;;;;;5047211;28;20203;-64
2022/12/28 12:39:44;;;;;;;0.50;0.50;;;;;;;;;;5032190;28;20714;-69
2022/12/28 12:42:16;;;;;;;1.10;0.50;;;;;;;;;;5046907;28;20242;-64
2022/12/28 12:44:49;;;;;;;1.50;0.60;;;;;;;;;;5036048;28;20212;-65
2022/12/28 12:47:25;;;;;;;1.07;0.70;;;;;;;;;;5034676;28;20208;-65
2022/12/28 12:50:02;;;;;;;1.27;1.17;;;;;;;;;;5045409;28;20779;-66
2022/12/28 12:52:35;;;;;;;3.00;1.20;;;;;;;;;;5035860;28;20245;-65
2022/12/28 12:55:07;;;;;;;2.07;1.30;;;;;;;;;;5039983;28;20203;-66
2022/12/28 12:57:40;;;;;;;1.57;0.87;;;;;;;;;;5039673;28;20657;-66
2022/12/28 13:00:13;;;;;;;1.80;1.70;;;;;;;;;;5031009;28;20208;-66
2022/12/28 13:03:01;;;;;;;2.80;1.00;;;;;;;;;;5035524;28;20571;-66
2022/12/28 13:05:30;;;;;;;0.93;0.93;;;;;;;;;;5047094;28;20197;-67
2022/12/28 13:07:58;;;;;;;1.80;1.33;;;;;;;;;;5036384;28;20237;-66
2022/12/28 13:10:27;;;;;;;3.07;1.00;;;;;;;;;;5043333;28;20248;-66
2022/12/28 13:12:57;;;;;;;0.57;0.57;;;;;;;;;;5034320;28;20201;-66
2022/12/28 13:15:24;;;;;;;2.63;0.60;;;;;;;;;;5048046;28;20212;-66
2022/12/28 13:18:01;;;;;;;2.23;1.33;;;;;;;;;;5043094;28;20211;-65
2022/12/28 13:20:28;;;;;;;1.20;1.20;;;;;;;;;;5041450;28;20672;-66
2022/12/28 13:22:55;;;;;;;0.70;0.70;;;;;;;;;;5032228;28;20200;-65
2022/12/28 13:25:26;;;;;;;1.03;1.00;;;;;;;;;;5040271;28;20678;-65
2022/12/28 13:27:53;;;;;;;1.17;0.83;;;;;;;;;;5028858;28;20220;-66
2022/12/28 13:30:23;;;;;;;1.00;1.00;;;;;;;;;;5029750;28;20285;-67
2022/12/28 13:32:51;;;;;;;1.07;0.97;;;;;;;;;;5041216;28;20227;-65
2022/12/28 13:35:19;;;;;;;0.90;0.90;;;;;;;;;;5030828;28;20290;-63
2022/12/28 13:37:58;;;;;;;1.07;1.07;;;;;;;;;;5043854;28;20220;-66
2022/12/28 13:40:26;;;;;;;1.97;1.17;;;;;;;;;;5039883;28;20253;-65
2022/12/28 13:42:57;;;;;;;0.60;0.50;;;;;;;;;;5039306;28;20199;-65
2022/12/28 13:45:25;;;;;;;1.20;1.20;;;;;;;;;;5030911;28;20669;-65
2022/12/28 13:47:53;;;;;;;0.77;0.77;;;;;;;;;;5033391;28;20206;-66
2022/12/28 13:50:23;;;;;;;2.53;1.00;;;;;;;;;;5037471;28;20330;-67
2022/12/28 13:52:52;;;;;;;2.47;1.27;;;;;;;;;;5037596;28;20213;-66
2022/12/28 13:55:21;;;;;;;2.00;0.60;;;;;;;;;;5045825;28;20606;-66
2022/12/28 13:57:49;;;;;;;1.37;0.97;;;;;;;;;;5033437;28;20259;-66
2022/12/28 14:00:17;;;;;;;0.60;0.60;;;;;;;;;;5037271;28;20745;-66
2022/12/28 14:02:46;;;;;;;1.23;0.90;;;;;;;;;;5035554;28;20567;-66
2022/12/28 14:05:16;;;;;;;2.60;1.60;;;;;;;;;;5039633;28;20208;-66
2022/12/28 14:07:44;;;;;;;1.80;0.70;;;;;;;;;;5033580;28;20734;-66
2022/12/28 14:10:23;;;;;;;0.90;0.90;;;;;;;;;;5084084;28;21077;-66
2022/12/28 14:12:51;;;;;;;6.60;3.17;;;;;;;;;;5084980;28;20211;-65
2022/12/28 14:15:18;;;;;;;3.57;2.47;;;;;;;;;;5086095;28;20210;-65
2022/12/28 14:17:46;;;;;;;2.30;2.20;;;;;;;;;;5075062;28;20734;-66
2022/12/28 14:20:14;;;;;;;2.53;1.83;;;;;;;;;;5085235;28;20276;-66
2022/12/28 14:22:41;;;;;;;5.60;1.17;;;;;;;;;;5085440;28;20297;-66
2022/12/28 14:25:10;;;;;;;3.13;2.43;;;;;;;;;;5077540;28;20214;-66
2022/12/28 14:27:40;;;;;;;1.37;0.90;;;;;;;;;;5080940;28;20267;-65
2022/12/28 14:30:08;;;;;;;0.77;0.77;;;;;;;;;;5084206;28;20287;-65
2022/12/28 14:32:36;;;;;;;1.13;1.13;;;;;;;;;;5078291;28;20214;-65
2022/12/28 14:35:03;;;;;;;1.33;1.33;;;;;;;;;;5077809;28;20206;-66
2022/12/28 14:37:31;;;;;;;1.83;1.00;;;;;;;;;;5084360;28;20217;-66
2022/12/28 14:40:00;;;;;;;2.97;0.83;;;;;;;;;;5083955;28;20341;-66
2022/12/28 14:42:28;;;;;;;0.90;0.90;;;;;;;;;;5084259;28;20203;-66
2022/12/28 14:44:57;;;;;;;1.50;0.83;;;;;;;;;;5083617;28;20593;-65
2022/12/28 14:47:34;;;;;;;0.90;0.90;;;;;;;;;;5079246;28;20211;-65
2022/12/28 14:50:03;;;;;;;1.20;1.10;;;;;;;;;;5084851;28;20218;-67
2022/12/28 14:52:35;;;;;;;1.03;0.90;;;;;;;;;;5084899;28;20661;-66
2022/12/28 14:55:05;;;;;;;1.10;1.10;;;;;;;;;;5083618;28;20357;-66
2022/12/28 14:57:34;;;;;;;1.13;1.13;;;;;;;;;;5074981;28;20206;-67
2022/12/28 15:00:04;;;;;;;2.87;1.27;;;;;;;;;;5080828;28;20206;-67
2022/12/28 15:02:39;;;;;;;1.07;1.07;;;;;;;;;;5066199;28;20199;-65
2022/12/28 15:05:21;;;;;;;1.70;0.73;;;;;;;;;;5066539;28;20233;-64
2022/12/28 15:07:48;;;;;;;0.80;0.80;;;;;;;;;;5071798;28;20213;-65
2022/12/28 15:10:16;;;;;;;1.13;1.10;;;;;;;;;;5085075;28;20235;-66
2022/12/28 15:12:43;;;;;;;0.80;0.80;;;;;;;;;;5069803;28;20210;-67
2022/12/28 15:15:12;;;;;;;3.43;1.07;;;;;;;;;;5066395;28;20202;-65
2022/12/28 15:17:39;;;;;;;1.23;1.23;;;;;;;;;;5067001;28;20219;-65
2022/12/28 15:20:07;;;;;;;1.80;1.10;;;;;;;;;;5070497;28;20203;-67
2022/12/28 15:22:34;;;;;;;0.90;0.90;;;;;;;;;;5069435;28;20323;-69
2022/12/28 15:25:01;;;;;;;1.03;1.03;;;;;;;;;;5055122;28;20219;-65